Aviation Digital Data Service (ADDS)

Output produced by METARs form (0213 UTC 05 June 2020)
found at http://www.aviationweather.gov/metar/data/
 
Forecast for: VEAT (AGARTALA , IN)
Text: TAF VEAT 050200Z 0503/0512 21003KT 5000 BR HZ FEW020 SCT100
Forecast period: 0300 to 1200 UTC 05 June 2020
Forecast type: FROM: standard forecast or significant change
Winds: from the SSW (210 degrees) at 3 MPH (3 knots; 1.5 m/s)
Visibility: 3 miles (5 km)
Ceiling: at least 12,000 feet AGL
Clouds: few clouds at 2000 feet AGL
scattered clouds at 10000 feet AGL
Weather: BR HZ  (mist, haze)